Time;durP1;ratioP1;P1;durP2;ratioP2;P2;SDS_P1;SDS_P2;PMS_P1;PMS_P2;Temp;Humidity;BMP_temperature;BMP_pressure;BME280_temperature;BME280_humidity;BME280_pressure;Samples;Min_cycle;Max_cycle;Signal;HPM_P1;HPM_P2
2023/10/19 00:00:19;;;;;;;4.88;4.38;;;;;;;9.45;76.19;93527.72;529343;28;1165;-45
2023/10/19 00:00:44;;;;;;;5.15;4.22;;;;;;;9.42;76.27;93529.53;530124;28;987;-44
2023/10/19 00:01:00;;;;;;;5.18;4.05;;;;;;;9.36;75.89;93519.94;530188;28;1094;-45
2023/10/19 00:01:17;;;;;;;5.10;4.20;;;;;;;9.44;76.03;93529.72;530160;28;1145;-45
2023/10/19 00:01:34;;;;;;;4.45;4.03;;;;;;;9.44;76.06;93526.25;529661;28;2392;-46
2023/10/19 00:01:49;;;;;;;4.18;3.45;;;;;;;9.46;75.88;93526.47;528076;28;1031;-45
2023/10/19 00:02:05;;;;;;;4.83;3.57;;;;;;;9.46;75.91;93523.69;528049;28;849;-45
2023/10/19 00:02:22;;;;;;;4.28;3.55;;;;;;;9.45;75.68;93525.72;528153;28;857;-44
2023/10/19 00:02:38;;;;;;;4.13;3.70;;;;;;;9.43;75.78;93524.78;528051;28;861;-46
2023/10/19 00:02:54;;;;;;;4.83;4.07;;;;;;;9.39;75.90;93519.59;528119;28;903;-45
2023/10/19 00:03:13;;;;;;;4.40;3.65;;;;;;;9.41;75.91;93525.31;528100;28;1437;-46
2023/10/19 00:03:28;;;;;;;4.07;3.65;;;;;;;9.41;75.87;93522.56;528042;28;1671;-46
2023/10/19 00:03:44;;;;;;;4.27;3.87;;;;;;;9.18;75.83;93494.09;528078;28;892;-45
2023/10/19 00:03:59;;;;;;;4.68;4.18;;;;;;;9.30;76.33;93513.81;528066;28;853;-47
2023/10/19 00:04:14;;;;;;;4.40;3.97;;;;;;;9.40;75.92;93520.34;528020;28;782;-48
2023/10/19 00:04:32;;;;;;;4.78;3.67;;;;;;;9.38;76.03;93526.38;528120;28;837;-44
2023/10/19 00:04:48;;;;;;;5.07;3.70;;;;;;;9.38;76.26;93525.63;527967;28;902;-45
2023/10/19 00:05:03;;;;;;;4.03;3.60;;;;;;;9.36;76.39;93526.19;528056;28;896;-47
2023/10/19 00:05:20;;;;;;;4.00;3.55;;;;;;;9.37;76.31;93527.69;528002;28;876;-46
2023/10/19 00:05:35;;;;;;;4.68;3.60;;;;;;;9.36;76.58;93523.44;528036;28;902;-46
2023/10/19 00:05:51;;;;;;;4.43;3.72;;;;;;;9.29;76.58;93517.88;528006;28;920;-45
2023/10/19 00:06:06;;;;;;;4.77;4.10;;;;;;;9.37;76.52;93521.41;528015;28;781;-45
2023/10/19 00:06:23;;;;;;;5.97;4.57;;;;;;;9.34;76.64;93522.47;528037;28;944;-45
2023/10/19 00:06:40;;;;;;;5.50;4.60;;;;;;;9.35;76.26;93521.97;528087;28;896;-45
2023/10/19 00:06:55;;;;;;;4.65;4.13;;;;;;;9.36;76.48;93523.44;528031;28;845;-46
2023/10/19 00:07:15;;;;;;;4.33;3.93;;;;;;;9.33;76.30;93516.25;528136;28;782;-46
2023/10/19 00:07:33;;;;;;;5.63;4.60;;;;;;;9.37;76.53;93526.94;528111;28;920;-46
2023/10/19 00:07:49;;;;;;;5.78;4.22;;;;;;;9.34;76.60;93523.22;528020;28;941;-46
2023/10/19 00:08:15;;;;;;;5.38;4.15;;;;;;;9.33;76.73;93526.53;527946;28;924;-47
2023/10/19 00:08:42;;;;;;;4.35;3.95;;;;;;;9.31;76.73;93521.56;525887;28;959;-45
2023/10/19 00:08:59;;;;;;;4.28;3.88;;;;;;;9.31;76.82;93520.81;526070;28;897;-47
2023/10/19 00:09:15;;;;;;;4.28;3.85;;;;;;;9.27;76.70;93514.91;526173;28;873;-45
2023/10/19 00:09:37;;;;;;;5.60;4.60;;;;;;;9.24;76.68;93507.72;526277;28;809;-46
2023/10/19 00:09:53;;;;;;;4.65;4.13;;;;;;;9.20;76.44;93510.06;526183;28;1038;-46
2023/10/19 00:10:09;;;;;;;4.50;4.07;;;;;;;9.27;76.64;93518.38;526354;28;1404;-45
2023/10/19 00:10:29;;;;;;;5.28;4.40;;;;;;;9.27;76.76;93520.44;528414;28;854;-45
2023/10/19 00:11:25;;;;;;;6.07;4.35;;;;;;;9.26;76.75;93527.94;528509;28;696;-45
2023/10/19 00:11:41;;;;;;;5.60;3.88;;;;;;;9.17;76.79;93506.38;528466;28;888;-47
2023/10/19 00:11:57;;;;;;;6.07;4.07;;;;;;;9.28;76.94;93524.66;528452;28;813;-45
2023/10/19 00:12:15;;;;;;;5.65;4.15;;;;;;;9.26;76.85;93522.44;528439;28;833;-45
2023/10/19 00:12:32;;;;;;;5.20;4.18;;;;;;;9.27;77.15;93520.44;528425;28;944;-45
2023/10/19 00:12:57;;;;;;;4.28;3.88;;;;;;;9.27;77.13;93517.66;528395;28;955;-45
2023/10/19 00:13:13;;;;;;;4.20;3.80;;;;;;;9.27;77.03;93517.66;528384;28;936;-46
2023/10/19 00:13:29;;;;;;;4.28;3.83;;;;;;;9.27;76.82;93517.66;528436;28;901;-47
2023/10/19 00:13:44;;;;;;;4.82;3.80;;;;;;;9.25;76.95;93518.19;528420;28;923;-45
2023/10/19 00:13:59;;;;;;;5.53;3.83;;;;;;;9.24;76.73;93518.75;528458;28;786;-46
2023/10/19 00:14:18;;;;;;;4.80;3.63;;;;;;;9.24;76.95;93518.75;528439;28;888;-46
2023/10/19 00:14:35;;;;;;;4.20;3.65;;;;;;;9.24;76.84;93518.75;528392;28;893;-45
2023/10/19 00:14:50;;;;;;;4.38;3.67;;;;;;;9.23;77.19;93520.75;528453;28;897;-44
2023/10/19 00:15:06;;;;;;;4.33;3.93;;;;;;;9.18;76.94;93519.59;528434;28;762;-46
2023/10/19 00:15:23;;;;;;;4.82;4.32;;;;;;;9.21;77.21;93515.03;528407;28;871;-45
2023/10/19 00:15:40;;;;;;;4.40;4.00;;;;;;;9.23;77.05;93517.25;528450;28;801;-44
2023/10/19 00:15:57;;;;;;;4.30;3.90;;;;;;;9.22;76.81;93516.53;528411;28;805;-46
2023/10/19 00:16:22;;;;;;;5.00;4.30;;;;;;;9.23;76.75;93518.00;528456;28;836;-46
2023/10/19 00:16:38;;;;;;;5.40;3.92;;;;;;;9.22;77.03;93515.78;528427;28;900;-46
2023/10/19 00:16:56;;;;;;;5.47;3.92;;;;;;;9.20;76.86;93516.34;528418;28;865;-46
2023/10/19 00:17:14;;;;;;;5.88;3.90;;;;;;;9.22;76.80;93513.78;526208;28;920;-47
2023/10/19 00:17:32;;;;;;;4.82;3.42;;;;;;;9.25;76.85;93514.72;526162;28;885;-47
2023/10/19 00:17:53;;;;;;;5.05;3.67;;;;;;;9.24;77.16;93515.97;523890;28;882;-47
2023/10/19 00:18:34;;;;;;;5.47;4.18;;;;;;;9.25;76.84;93507.16;524101;28;777;-46
2023/10/19 00:18:50;;;;;;;5.55;4.28;;;;;;;9.25;77.02;93514.72;524128;28;931;-47
2023/10/19 00:19:07;;;;;;;4.60;4.03;;;;;;;9.21;77.19;93511.53;525667;28;867;-47
2023/10/19 00:19:22;;;;;;;4.20;3.73;;;;;;;9.25;76.92;93511.97;526254;28;798;-46
2023/10/19 00:19:40;;;;;;;4.57;3.75;;;;;;;9.25;77.20;93509.94;527055;28;907;-47
2023/10/19 00:20:27;;;;;;;5.18;4.03;;;;;;;9.19;76.77;93501.06;528420;28;846;-46
2023/10/19 00:21:11;;;;;;;6.72;4.13;;;;;;;9.25;76.70;93512.69;528506;28;856;-46
2023/10/19 00:21:27;;;;;;;4.80;4.07;;;;;;;9.26;76.72;93514.16;528402;28;822;-45
2023/10/19 00:21:54;;;;;;;4.80;3.80;;;;;;;9.18;76.88;93505.13;528438;28;865;-45
2023/10/19 00:22:15;;;;;;;4.22;3.83;;;;;;;9.27;76.74;93512.16;528437;28;817;-45
2023/10/19 00:22:35;;;;;;;3.92;3.53;;;;;;;9.27;76.55;93512.16;526093;28;910;-45
2023/10/19 00:22:52;;;;;;;3.90;3.53;;;;;;;9.26;76.71;93508.66;526230;28;916;-46
2023/10/19 00:23:09;;;;;;;4.47;4.07;;;;;;;9.26;76.74;93505.16;526173;28;865;-45
2023/10/19 00:23:28;;;;;;;4.72;4.10;;;;;;;9.28;76.47;93514.38;526184;28;887;-47
2023/10/19 00:23:47;;;;;;;4.95;4.05;;;;;;;9.30;76.49;93508.31;526955;28;1205;-46
2023/10/19 00:24:04;;;;;;;5.10;4.30;;;;;;;9.31;76.34;93513.31;526541;28;1077;-46
2023/10/19 00:24:22;;;;;;;4.57;4.05;;;;;;;9.28;76.41;93508.88;527161;28;1308;-46
2023/10/19 00:24:39;;;;;;;4.25;3.75;;;;;;;9.31;76.78;93507.78;530554;27;882;-45
2023/10/19 00:24:59;;;;;;;5.25;3.90;;;;;;;9.33;76.23;93510.00;530478;27;1115;-45
2023/10/19 00:25:14;;;;;;;5.63;3.72;;;;;;;9.34;76.53;93508.72;530490;27;829;-45
2023/10/19 00:25:30;;;;;;;5.05;3.90;;;;;;;9.28;76.38;93502.59;530585;27;1077;-46
2023/10/19 00:25:50;;;;;;;4.67;4.17;;;;;;;9.24;76.26;93497.44;530559;27;855;-46
2023/10/19 00:26:09;;;;;;;5.60;4.32;;;;;;;9.33;76.00;93512.75;530372;27;1139;-45
2023/10/19 00:26:26;;;;;;;4.13;3.72;;;;;;;9.31;75.91;93513.31;530492;27;861;-47
2023/10/19 00:26:41;;;;;;;4.88;3.95;;;;;;;9.31;76.07;93507.03;530562;27;900;-46
2023/10/19 00:26:57;;;;;;;5.20;4.10;;;;;;;9.28;75.97;93505.38;530439;27;1548;-46
2023/10/19 00:27:17;;;;;;;4.87;3.73;;;;;;;9.28;76.07;93505.38;526242;28;1208;-45
2023/10/19 00:27:32;;;;;;;3.55;3.20;;;;;;;9.28;76.32;93506.09;526162;28;882;-46
2023/10/19 00:27:48;;;;;;;3.75;3.35;;;;;;;9.26;76.21;93500.41;526145;28;1638;-44
2023/10/19 00:28:04;;;;;;;3.95;3.55;;;;;;;9.27;76.14;93503.91;526132;28;1152;-44
2023/10/19 00:28:22;;;;;;;4.10;3.70;;;;;;;9.26;76.34;93505.16;526165;28;887;-46
2023/10/19 00:28:38;;;;;;;4.38;3.50;;;;;;;9.26;76.34;93503.16;526110;28;1746;-47
2023/10/19 00:28:55;;;;;;;4.25;3.80;;;;;;;9.26;76.18;93500.41;526146;28;939;-45
2023/10/19 00:29:55;;;;;;;4.43;3.47;;;;;;;9.27;76.25;93501.16;528416;28;684;-47
2023/10/19 00:30:11;;;;;;;4.43;3.70;;;;;;;9.26;76.35;93496.91;528453;28;852;-46
2023/10/19 00:30:30;;;;;;;4.03;3.60;;;;;;;9.26;76.59;93500.41;528337;28;1654;-45
2023/10/19 00:30:48;;;;;;;3.97;3.67;;;;;;;9.25;76.29;93498.91;528347;28;912;-45
2023/10/19 00:31:07;;;;;;;4.68;4.28;;;;;;;9.27;76.49;93501.16;528406;28;898;-45
2023/10/19 00:31:24;;;;;;;5.05;4.30;;;;;;;9.27;76.54;93499.09;528423;28;932;-46
2023/10/19 00:31:40;;;;;;;4.97;3.95;;;;;;;9.27;76.44;93507.38;528416;28;1695;-45
2023/10/19 00:31:58;;;;;;;4.80;3.95;;;;;;;9.26;76.59;93503.16;528270;28;869;-45
2023/10/19 00:32:14;;;;;;;5.72;4.20;;;;;;;9.28;76.50;93502.59;528452;28;924;-44
2023/10/19 00:32:30;;;;;;;5.47;4.22;;;;;;;9.28;76.20;93502.59;528387;28;889;-46
2023/10/19 00:32:46;;;;;;;4.65;4.13;;;;;;;9.19;76.26;93487.28;528400;28;821;-47
2023/10/19 00:33:03;;;;;;;5.57;4.00;;;;;;;9.25;76.03;93503.69;528494;28;852;-46
2023/10/19 00:33:21;;;;;;;4.68;3.38;;;;;;;9.24;76.34;93497.44;528434;28;868;-45
2023/10/19 00:33:39;;;;;;;4.05;3.35;;;;;;;9.23;76.47;93497.97;528434;28;1027;-46
2023/10/19 00:33:55;;;;;;;3.92;3.53;;;;;;;9.23;76.44;93500.72;528356;28;1060;-46
2023/10/19 00:34:13;;;;;;;3.75;3.45;;;;;;;9.16;76.43;93491.13;526045;28;885;-45
2023/10/19 00:34:28;;;;;;;4.07;3.65;;;;;;;9.13;76.38;93487.44;526120;28;1646;-46
2023/10/19 00:34:51;;;;;;;4.35;3.88;;;;;;;9.21;76.56;93503.28;526124;28;868;-46
2023/10/19 00:35:27;;;;;;;4.95;3.95;;;;;;;9.22;76.36;93497.25;526120;28;856;-46
2023/10/19 00:35:46;;;;;;;4.25;3.85;;;;;;;9.22;76.56;93497.25;523880;28;1922;-46
2023/10/19 00:36:08;;;;;;;4.65;3.63;;;;;;;9.13;76.42;93481.94;524759;28;1078;-46
2023/10/19 00:36:25;;;;;;;4.35;3.67;;;;;;;9.22;76.74;93497.25;526117;28;1110;-45
2023/10/19 00:36:40;;;;;;;4.20;3.53;;;;;;;9.20;76.37;93502.56;524022;28;897;-45
2023/10/19 00:36:56;;;;;;;4.23;3.37;;;;;;;8.98;76.69;93459.03;524068;28;782;-44
2023/10/19 00:37:18;;;;;;;4.20;3.80;;;;;;;9.21;76.54;93495.00;524554;28;895;-45
2023/10/19 00:37:42;;;;;;;3.95;3.55;;;;;;;8.98;76.59;93462.53;526167;28;853;-45
2023/10/19 00:38:17;;;;;;;4.35;3.95;;;;;;;9.20;76.76;93496.31;526137;28;885;-45
2023/10/19 00:38:55;;;;;;;4.82;3.88;;;;;;;9.19;76.75;93492.81;528472;28;753;-45
2023/10/19 00:39:20;;;;;;;4.22;3.88;;;;;;;9.16;76.48;93486.34;528295;28;913;-44
2023/10/19 00:39:43;;;;;;;3.57;3.27;;;;;;;9.16;76.54;93491.84;528368;28;967;-45
2023/10/19 00:40:14;;;;;;;3.92;3.60;;;;;;;9.13;76.84;93495.72;528397;28;899;-45
2023/10/19 00:40:36;;;;;;;4.25;3.40;;;;;;;9.14;77.16;93493.66;528376;28;1018;-44
2023/10/19 00:40:53;;;;;;;3.50;3.20;;;;;;;9.13;77.02;93492.94;528420;28;840;-44
2023/10/19 00:41:32;;;;;;;4.35;3.78;;;;;;;9.13;77.52;93495.72;528431;28;919;-46
2023/10/19 00:41:48;;;;;;;5.93;4.68;;;;;;;9.09;77.14;93484.28;528333;28;1760;-46
2023/10/19 00:42:03;;;;;;;6.20;4.90;;;;;;;9.08;77.17;93490.31;528426;28;817;-46
2023/10/19 00:42:24;;;;;;;4.00;3.50;;;;;;;9.06;77.11;93485.34;528385;28;813;-45
2023/10/19 00:42:45;;;;;;;4.00;3.43;;;;;;;9.03;77.31;93483.66;528423;28;908;-50
2023/10/19 00:43:10;;;;;;;4.15;3.50;;;;;;;9.00;77.75;93484.75;528410;28;888;-45
2023/10/19 00:43:32;;;;;;;3.92;3.42;;;;;;;8.88;78.00;93488.31;526045;28;902;-46
2023/10/19 00:43:57;;;;;;;4.15;3.55;;;;;;;8.85;77.96;93489.38;526089;28;900;-45
2023/10/19 00:44:16;;;;;;;5.78;4.20;;;;;;;8.82;78.37;93485.69;526077;28;991;-46
2023/10/19 00:44:42;;;;;;;5.53;3.83;;;;;;;8.83;78.47;93491.94;526123;28;1061;-45
2023/10/19 00:45:24;;;;;;;4.73;3.57;;;;;;;8.82;78.46;93487.69;526034;28;944;-46
2023/10/19 00:45:39;;;;;;;4.80;3.95;;;;;;;8.85;78.50;93486.63;527751;28;1551;-44
2023/10/19 00:45:56;;;;;;;4.25;3.90;;;;;;;8.85;78.44;93483.88;528287;28;979;-47
2023/10/19 00:46:43;;;;;;;4.05;3.53;;;;;;;8.85;78.73;93479.13;528461;28;690;-46
2023/10/19 00:47:12;;;;;;;4.47;3.85;;;;;;;8.86;78.54;93488.09;528376;28;904;-46
2023/10/19 00:47:36;;;;;;;4.75;4.25;;;;;;;8.84;78.79;93485.16;528355;28;829;-46
2023/10/19 00:47:53;;;;;;;4.53;4.10;;;;;;;8.84;78.84;93480.38;528460;28;820;-44
2023/10/19 00:48:11;;;;;;;4.50;4.10;;;;;;;8.60;78.64;93452.47;528373;28;849;-47
2023/10/19 00:48:27;;;;;;;4.88;4.38;;;;;;;8.83;78.91;93481.66;526101;28;873;-45
2023/10/19 00:48:55;;;;;;;4.72;4.22;;;;;;;8.85;78.76;93479.13;526154;28;1048;-45
2023/10/19 00:49:15;;;;;;;4.70;4.20;;;;;;;8.85;78.73;93472.88;527299;28;1082;-46
2023/10/19 00:49:30;;;;;;;4.45;4.05;;;;;;;8.86;78.70;93477.84;526032;28;905;-46
2023/10/19 00:49:46;;;;;;;4.78;3.92;;;;;;;8.87;78.81;93470.31;526103;28;952;-45
2023/10/19 00:50:05;;;;;;;4.13;3.72;;;;;;;8.86;78.48;93471.56;526158;28;976;-46
2023/10/19 00:50:22;;;;;;;4.22;3.83;;;;;;;8.84;78.71;93469.38;527556;28;856;-46
2023/10/19 00:50:38;;;;;;;5.60;3.95;;;;;;;8.84;78.82;93477.63;526001;28;1285;-44
2023/10/19 00:51:06;;;;;;;5.57;3.93;;;;;;;8.79;78.88;93475.03;526154;28;786;-48
2023/10/19 00:52:04;;;;;;;4.45;3.88;;;;;;;8.82;78.92;93474.69;526213;28;1088;-46
2023/10/19 00:52:19;;;;;;;4.22;3.83;;;;;;;8.83;79.04;93478.91;526167;28;915;-46
2023/10/19 00:52:43;;;;;;;4.23;3.80;;;;;;;8.84;78.95;93474.88;527651;28;818;-46
2023/10/19 00:52:59;;;;;;;5.18;4.20;;;;;;;8.86;78.76;93474.34;526571;28;916;-44
2023/10/19 00:53:14;;;;;;;5.10;4.20;;;;;;;8.86;78.76;93475.06;526170;28;782;-45
2023/10/19 00:53:29;;;;;;;4.32;3.72;;;;;;;8.86;78.66;93479.84;526128;28;870;-45
2023/10/19 00:53:45;;;;;;;4.27;3.87;;;;;;;8.88;78.81;93474.56;526093;28;828;-44
2023/10/19 00:54:08;;;;;;;4.20;3.80;;;;;;;8.89;78.68;93473.28;526177;28;797;-45
2023/10/19 00:54:37;;;;;;;4.30;3.90;;;;;;;8.91;78.88;93476.22;526056;28;990;-45
2023/10/19 00:54:55;;;;;;;5.20;3.67;;;;;;;8.92;78.89;93475.69;528251;28;903;-45
2023/10/19 00:55:12;;;;;;;4.43;3.65;;;;;;;8.91;78.49;93468.72;526060;28;948;-45
2023/10/19 00:55:28;;;;;;;4.38;3.97;;;;;;;8.94;78.36;93467.63;526077;28;897;-45
2023/10/19 00:55:45;;;;;;;4.10;3.70;;;;;;;8.93;78.29;93471.66;526051;28;2021;-45
2023/10/19 00:56:05;;;;;;;3.75;3.35;;;;;;;8.95;78.10;93469.09;525991;28;994;-45
2023/10/19 00:56:23;;;;;;;4.43;3.65;;;;;;;8.95;78.03;93473.88;526114;28;900;-46
2023/10/19 00:56:51;;;;;;;4.80;4.30;;;;;;;8.96;78.13;93472.59;526141;28;905;-46
2023/10/19 00:57:13;;;;;;;5.57;4.22;;;;;;;8.97;78.07;93474.06;527846;28;912;-47
2023/10/19 00:57:35;;;;;;;5.25;4.18;;;;;;;8.97;78.07;93472.06;528235;28;832;-46
2023/10/19 00:57:52;;;;;;;5.35;4.72;;;;;;;8.98;78.03;93472.81;527947;28;2438;-44
2023/10/19 00:58:09;;;;;;;5.70;4.72;;;;;;;8.97;78.29;93466.56;528343;28;917;-44
2023/10/19 00:58:29;;;;;;;4.07;3.67;;;;;;;8.96;78.23;93470.59;528302;28;981;-45
2023/10/19 00:58:53;;;;;;;4.82;3.92;;;;;;;8.80;78.10;93460.72;528319;28;959;-47
2023/10/19 00:59:24;;;;;;;3.90;3.50;;;;;;;8.86;78.38;93472.31;528277;28;936;-45
2023/10/19 00:59:53;;;;;;;4.47;3.78;;;;;;;8.87;78.46;93467.56;526036;28;829;-47
2023/10/19 01:00:11;;;;;;;5.20;3.92;;;;;;;8.81;78.35;93469.72;526079;28;963;-46
2023/10/19 01:00:31;;;;;;;4.28;3.88;;;;;;;8.78;78.58;93468.78;526068;28;844;-47
2023/10/19 01:00:49;;;;;;;4.03;3.63;;;;;;;8.75;78.50;93475.34;526120;28;845;-44
2023/10/19 01:01:05;;;;;;;3.67;3.38;;;;;;;8.70;78.58;93476.22;524018;28;880;-45
2023/10/19 01:01:24;;;;;;;4.28;3.88;;;;;;;8.70;78.75;93480.97;523963;28;945;-47
2023/10/19 01:01:44;;;;;;;5.15;4.65;;;;;;;8.68;79.10;93475.28;524039;28;876;-45
2023/10/19 01:02:34;;;;;;;4.20;3.83;;;;;;;8.71;78.92;93476.94;524743;28;766;-45
2023/10/19 01:02:51;;;;;;;4.15;3.80;;;;;;;8.70;78.88;93475.47;526421;28;868;-44
2023/10/19 01:03:09;;;;;;;4.15;3.53;;;;;;;8.71;79.23;93479.69;528303;28;826;-45
2023/10/19 01:03:31;;;;;;;4.65;3.80;;;;;;;8.72;78.73;93483.94;526022;28;893;-47
2023/10/19 01:03:52;;;;;;;5.75;3.85;;;;;;;8.65;78.91;93473.59;526069;28;889;-46
2023/10/19 01:04:07;;;;;;;3.90;3.53;;;;;;;8.70;78.92;93475.47;526020;28;857;-45
2023/10/19 01:04:23;;;;;;;4.20;3.80;;;;;;;8.68;79.02;93481.53;526154;28;880;-45
2023/10/19 01:04:42;;;;;;;4.38;3.97;;;;;;;8.68;78.85;93476.03;526017;28;889;-45
2023/10/19 01:05:05;;;;;;;5.53;4.00;;;;;;;8.66;79.13;93473.06;526036;28;852;-45
2023/10/19 01:05:23;;;;;;;5.85;3.88;;;;;;;8.65;79.38;93468.81;527938;28;884;-46
2023/10/19 01:05:38;;;;;;;4.43;4.03;;;;;;;8.64;79.22;93475.59;528310;28;987;-46
2023/10/19 01:05:54;;;;;;;4.00;3.70;;;;;;;8.64;79.06;93472.84;528258;28;928;-47
2023/10/19 01:06:12;;;;;;;4.97;3.78;;;;;;;8.66;79.12;93475.81;528416;28;845;-46
2023/10/19 01:06:31;;;;;;;6.03;4.18;;;;;;;8.66;79.26;93475.06;528320;28;968;-46
2023/10/19 01:07:44;;;;;;;6.07;4.20;;;;;;;8.68;78.99;93478.78;519710;28;1218;-46
2023/10/19 01:08:02;;;;;;;4.80;4.15;;;;;;;8.69;79.09;93471.97;519680;28;1800;-45
2023/10/19 01:08:24;;;;;;;4.55;3.97;;;;;;;8.70;78.84;93464.47;519700;28;964;-45
2023/10/19 01:08:41;;;;;;;4.22;3.72;;;;;;;8.70;78.71;93476.22;520052;28;1238;-44
2023/10/19 01:08:56;;;;;;;5.72;4.20;;;;;;;8.68;78.38;93473.28;526066;28;897;-44
2023/10/19 01:09:15;;;;;;;5.17;4.17;;;;;;;8.66;78.32;93473.06;526190;28;875;-45
2023/10/19 01:09:35;;;;;;;4.70;4.10;;;;;;;8.65;78.60;93471.56;526038;28;916;-45
2023/10/19 01:09:53;;;;;;;5.22;4.32;;;;;;;8.60;78.55;93475.19;526113;28;1112;-47
2023/10/19 01:10:11;;;;;;;6.00;4.25;;;;;;;8.52;78.73;93468.88;526051;28;921;-48
2023/10/19 01:10:28;;;;;;;4.22;3.83;;;;;;;8.48;78.72;93473.97;525966;28;1105;-44
2023/10/19 01:10:45;;;;;;;4.82;4.22;;;;;;;8.24;79.12;93444.72;526385;28;893;-46
2023/10/19 01:11:03;;;;;;;6.43;5.00;;;;;;;8.48;79.02;93473.22;526146;28;928;-45
2023/10/19 01:11:20;;;;;;;5.55;4.55;;;;;;;8.48;79.24;93471.22;526065;28;920;-45
2023/10/19 01:11:36;;;;;;;4.88;4.47;;;;;;;8.50;79.37;93481.69;526044;28;935;-46
2023/10/19 01:11:52;;;;;;;4.72;4.18;;;;;;;8.48;79.13;93471.22;526146;28;875;-44
2023/10/19 01:12:40;;;;;;;4.57;3.83;;;;;;;8.50;79.20;93476.94;525972;28;905;-46
2023/10/19 01:12:52;;;;;;;4.90;3.90;;;;;;;8.53;78.84;93478.63;525461;28;1576;-46
2023/10/19 01:13:09;;;;;;;3.95;3.45;;;;;;;8.52;79.00;93482.63;528331;28;841;-45
2023/10/19 01:13:27;;;;;;;4.13;3.72;;;;;;;8.51;78.63;93466.66;528270;28;905;-44
2023/10/19 01:13:44;;;;;;;4.35;3.65;;;;;;;8.50;78.97;93476.94;528257;28;959;-46
2023/10/19 01:14:00;;;;;;;4.90;3.70;;;;;;;8.52;78.79;93468.88;528342;28;1040;-45
2023/10/19 01:14:22;;;;;;;4.32;3.92;;;;;;;8.52;78.58;93471.63;528283;28;888;-46
2023/10/19 01:14:38;;;;;;;4.68;3.75;;;;;;;8.51;78.65;93466.66;528202;28;839;-45
2023/10/19 01:15:42;;;;;;;4.28;3.65;;;;;;;8.53;78.81;93475.88;519697;28;1218;-45
2023/10/19 01:15:51;;;;;;;4.20;3.80;;;;;;;8.54;78.79;93477.34;528309;28;830;-45
2023/10/19 01:15:58;;;;;;;4.37;3.50;;;;;;;8.50;79.09;93474.19;522948;28;1416;-45
2023/10/19 01:16:20;;;;;;;6.22;3.38;;;;;;;8.43;79.15;93465.84;528267;28;857;-44
2023/10/19 01:16:36;;;;;;;5.55;4.35;;;;;;;8.40;79.49;93470.41;528272;28;947;-44
2023/10/19 01:16:51;;;;;;;5.60;4.45;;;;;;;8.35;79.73;93471.25;528356;28;1606;-45
2023/10/19 01:17:07;;;;;;;4.83;4.40;;;;;;;8.34;79.92;93464.28;528252;28;875;-46
2023/10/19 01:17:22;;;;;;;4.40;4.00;;;;;;;8.32;80.01;93473.06;528339;28;813;-44
2023/10/19 01:17:38;;;;;;;4.63;3.42;;;;;;;8.28;79.96;93467.16;528181;28;892;-44
2023/10/19 01:17:59;;;;;;;5.05;3.55;;;;;;;8.28;80.21;93472.66;528259;28;837;-46
2023/10/19 01:18:15;;;;;;;6.22;4.20;;;;;;;8.31;80.02;93476.34;526100;28;897;-45
2023/10/19 01:18:33;;;;;;;5.60;4.28;;;;;;;8.32;80.25;93475.06;526127;28;928;-45
2023/10/19 01:18:55;;;;;;;4.30;3.90;;;;;;;8.32;80.10;93475.81;526060;28;845;-44
2023/10/19 01:19:11;;;;;;;3.80;3.50;;;;;;;8.31;80.36;93465.34;526100;28;866;-46
2023/10/19 01:19:27;;;;;;;3.75;3.45;;;;;;;8.28;80.07;93469.16;526053;28;824;-44
2023/10/19 01:19:42;;;;;;;4.67;3.60;;;;;;;8.30;80.21;93469.38;526045;28;909;-45
2023/10/19 01:19:58;;;;;;;4.65;3.60;;;;;;;8.32;80.35;93473.06;525777;28;883;-45
2023/10/19 01:20:55;;;;;;;4.45;4.05;;;;;;;8.28;80.27;93472.66;528078;28;742;-45
2023/10/19 01:21:11;;;;;;;4.38;3.88;;;;;;;8.28;80.29;93469.91;528317;28;912;-44
2023/10/19 01:21:37;;;;;;;5.88;4.18;;;;;;;8.06;80.21;93440.09;525938;28;915;-46
2023/10/19 01:21:58;;;;;;;4.63;4.18;;;;;;;8.23;80.40;93469.97;526041;28;1099;-45
2023/10/19 01:22:16;;;;;;;4.43;4.00;;;;;;;8.30;80.46;93472.13;525935;28;988;-45
2023/10/19 01:22:32;;;;;;;5.80;3.90;;;;;;;8.28;80.19;93472.66;526060;28;905;-45
2023/10/19 01:22:53;;;;;;;5.45;4.18;;;;;;;8.25;80.50;93468.22;526070;28;849;-46
2023/10/19 01:23:27;;;;;;;4.50;4.10;;;;;;;8.32;80.36;93475.81;528000;28;671;-45
2023/10/19 01:23:44;;;;;;;4.78;4.10;;;;;;;8.34;80.42;93469.78;529064;27;1126;-44
2023/10/19 01:23:59;;;;;;;6.93;4.53;;;;;;;8.35;80.45;93471.25;529017;27;1120;-45
2023/10/19 01:24:16;;;;;;;7.20;4.53;;;;;;;8.35;80.55;93469.25;528290;28;853;-46
2023/10/19 01:24:41;;;;;;;6.15;4.60;;;;;;;8.38;80.18;93468.19;528317;28;991;-45
2023/10/19 01:24:57;;;;;;;5.97;4.20;;;;;;;8.39;80.28;93469.66;528245;28;900;-48
2023/10/19 01:25:16;;;;;;;6.47;3.97;;;;;;;8.40;80.25;93471.13;528299;28;876;-47
2023/10/19 01:26:21;;;;;;;4.63;3.88;;;;;;;8.46;80.02;93471.03;528175;28;1242;-45
2023/10/19 01:26:37;;;;;;;5.50;4.28;;;;;;;8.46;80.08;93473.78;528326;28;880;-46
2023/10/19 01:26:53;;;;;;;5.57;4.68;;;;;;;8.49;79.96;93474.72;528267;28;959;-46
2023/10/19 01:27:09;;;;;;;6.60;5.40;;;;;;;8.50;79.85;93467.94;529850;27;1153;-46
2023/10/19 01:27:24;;;;;;;5.87;4.77;;;;;;;8.51;79.84;93472.16;530431;27;888;-45
2023/10/19 01:27:40;;;;;;;5.22;4.40;;;;;;;8.51;80.15;93474.91;530456;27;1007;-44
2023/10/19 01:27:57;;;;;;;6.33;4.67;;;;;;;8.53;80.08;93475.88;530332;27;1743;-45
2023/10/19 01:28:16;;;;;;;5.13;4.40;;;;;;;8.53;79.91;93469.63;530406;27;948;-45
2023/10/19 01:28:43;;;;;;;7.65;4.68;;;;;;;8.55;79.64;93478.09;530454;27;856;-45
2023/10/19 01:29:01;;;;;;;8.10;4.32;;;;;;;8.56;79.70;93471.28;530427;27;948;-46
2023/10/19 01:29:17;;;;;;;6.75;4.55;;;;;;;8.57;79.47;93468.03;530417;27;892;-46
2023/10/19 01:29:34;;;;;;;5.85;4.40;;;;;;;8.57;79.39;93470.03;530359;27;1008;-46
2023/10/19 01:29:52;;;;;;;6.05;4.45;;;;;;;8.57;79.62;93475.53;530415;27;844;-46
2023/10/19 01:30:09;;;;;;;4.70;4.18;;;;;;;8.60;79.52;93474.47;530381;27;1173;-46
2023/10/19 01:30:24;;;;;;;5.72;4.18;;;;;;;8.60;79.46;93480.69;530416;27;809;-46
2023/10/19 01:30:39;;;;;;;6.03;4.60;;;;;;;8.61;79.18;93479.44;530449;27;813;-46
2023/10/19 01:30:55;;;;;;;5.13;4.63;;;;;;;8.61;79.10;93473.94;530372;27;860;-46
2023/10/19 01:31:55;;;;;;;9.77;5.15;;;;;;;8.64;79.12;93481.09;530379;27;698;-45
2023/10/19 01:32:15;;;;;;;6.43;4.75;;;;;;;8.65;78.96;93477.09;530433;27;852;-46
2023/10/19 01:32:30;;;;;;;6.65;4.75;;;;;;;8.63;78.90;93474.13;530387;27;881;-45
2023/10/19 01:32:45;;;;;;;6.47;4.83;;;;;;;8.62;78.97;93472.63;530332;27;1194;-47
2023/10/19 01:33:01;;;;;;;6.88;4.93;;;;;;;8.62;79.04;93475.38;530427;27;943;-46
2023/10/19 01:33:21;;;;;;;7.30;5.05;;;;;;;8.58;78.95;93465.97;530377;27;856;-46
2023/10/19 01:33:36;;;;;;;6.10;4.80;;;;;;;8.64;78.78;93480.38;530382;27;1090;-46
2023/10/19 01:33:55;;;;;;;5.93;4.70;;;;;;;8.62;79.10;93475.38;530456;27;860;-45
2023/10/19 01:34:11;;;;;;;6.03;4.43;;;;;;;8.66;79.05;93484.06;530401;27;884;-45
2023/10/19 01:34:27;;;;;;;5.63;4.35;;;;;;;8.61;78.81;93470.44;530339;27;822;-44
2023/10/19 01:34:43;;;;;;;5.00;4.22;;;;;;;8.63;78.97;93474.13;530409;27;864;-44
2023/10/19 01:34:58;;;;;;;5.70;4.43;;;;;;;8.68;78.79;93478.03;528056;28;1641;-45
2023/10/19 01:35:14;;;;;;;4.87;4.37;;;;;;;8.67;78.72;93480.03;528098;28;950;-44
2023/10/19 01:36:10;;;;;;;5.07;4.22;;;;;;;8.68;79.00;93481.53;528146;28;1596;-45
2023/10/19 01:36:10;;;;;;;7.15;4.40;;;;;;;8.70;78.53;93478.22;528087;28;1033;-44
2023/10/19 01:36:27;;;;;;;7.03;4.28;;;;;;;8.71;78.52;93480.44;528060;28;1795;-45
2023/10/19 01:36:42;;;;;;;5.35;4.30;;;;;;;8.71;78.65;93476.94;528113;28;921;-44
2023/10/19 01:37:02;;;;;;;7.83;4.33;;;;;;;8.71;78.33;93476.94;530269;27;825;-46
2023/10/19 01:37:18;;;;;;;7.15;4.22;;;;;;;8.65;78.42;93471.56;530267;27;952;-45
2023/10/19 01:37:37;;;;;;;4.72;4.30;;;;;;;8.73;78.32;93472.38;530354;27;939;-45
2023/10/19 01:37:53;;;;;;;5.22;4.07;;;;;;;8.67;78.23;93474.53;530439;27;868;-46
2023/10/19 01:38:08;;;;;;;6.53;4.55;;;;;;;8.73;78.22;93486.16;530277;27;891;-45
2023/10/19 01:38:24;;;;;;;5.83;4.33;;;;;;;8.70;78.05;93470.72;530427;27;793;-45
2023/10/19 01:38:41;;;;;;;4.32;3.72;;;;;;;8.74;78.02;93473.13;530386;27;1014;-46
2023/10/19 01:39:10;;;;;;;4.50;4.07;;;;;;;8.73;77.59;93472.38;530372;27;888;-46
2023/10/19 01:39:25;;;;;;;5.13;4.07;;;;;;;8.75;77.72;93478.09;530385;27;836;-48
2023/10/19 01:39:45;;;;;;;4.40;4.00;;;;;;;8.76;77.74;93476.09;530364;27;981;-45
2023/10/19 01:40:01;;;;;;;4.40;4.00;;;;;;;8.77;77.73;93483.06;530364;27;920;-45
2023/10/19 01:40:20;;;;;;;4.78;4.28;;;;;;;8.76;77.68;93473.34;530327;27;928;-46